Time;durP1;ratioP1;P1;durP2;ratioP2;P2;SDS_P1;SDS_P2;PMS_P1;PMS_P2;Temp;Humidity;BMP_temperature;BMP_pressure;BME280_temperature;BME280_humidity;BME280_pressure;Samples;Min_cycle;Max_cycle;Signal;HPM_P1;HPM_P2
2022/04/20 00:01:14;;;;;;;;;4.25;4.25;;;;;21.03;34.14;100711.75;5056475;28;45258;-60
2022/04/20 00:03:39;;;;;;;;;7.50;5.00;;;;;21.03;34.11;100711.75;5056401;28;45315;-59
2022/04/20 00:06:05;;;;;;;;;6.50;6.00;;;;;21.01;34.17;100710.06;5056556;28;45273;-59
2022/04/20 00:08:32;;;;;;;;;4.00;3.50;;;;;21.02;34.68;100716.19;5056773;28;45861;-60
2022/04/20 00:10:57;;;;;;;;;6.00;5.50;;;;;21.01;34.39;100709.22;5054998;28;46985;-65
2022/04/20 00:13:23;;;;;;;;;4.25;3.00;;;;;21.00;34.67;100708.38;5055811;28;45411;-62
2022/04/20 00:15:48;;;;;;;;;5.75;4.75;;;;;21.01;34.16;100715.34;5056806;28;45468;-64
2022/04/20 00:18:13;;;;;;;;;6.25;5.00;;;;;21.01;34.18;100720.59;5056849;28;45465;-61
2022/04/20 00:20:39;;;;;;;;;4.50;4.50;;;;;21.01;34.19;100714.50;5055758;28;46420;-64
2022/04/20 00:23:04;;;;;;;;;4.50;4.50;;;;;21.01;34.23;100709.22;5056110;28;45350;-61
2022/04/20 00:25:29;;;;;;;;;4.25;4.00;;;;;20.99;34.77;100706.69;5056226;28;45387;-61
2022/04/20 00:27:55;;;;;;;;;4.75;4.00;;;;;21.00;34.22;100712.81;5056329;28;45497;-62
2022/04/20 00:30:20;;;;;;;;;4.75;4.00;;;;;21.00;34.51;100702.25;5055855;28;45515;-60
2022/04/20 00:32:46;;;;;;;;;4.00;4.00;;;;;20.98;34.33;100705.00;5055018;28;47916;-59
2022/04/20 00:35:11;;;;;;;;;5.00;4.25;;;;;20.99;34.36;100704.06;5056182;28;45248;-61
2022/04/20 00:37:37;;;;;;;;;5.25;5.00;;;;;20.98;34.40;100704.13;5056212;28;45335;-62
2022/04/20 00:40:04;;;;;;;;;6.25;4.75;;;;;21.00;34.26;100702.25;5055799;28;45359;-61
2022/04/20 00:42:31;;;;;;;;;5.75;5.50;;;;;20.99;34.69;100700.56;5057619;28;46019;-61
2022/04/20 00:44:56;;;;;;;;;6.75;5.50;;;;;20.98;34.38;100699.72;5059578;28;45752;-62
2022/04/20 00:47:23;;;;;;;;;5.00;5.00;;;;;20.99;34.19;100703.19;5059837;28;45323;-62
2022/04/20 00:49:49;;;;;;;;;5.75;5.75;;;;;20.96;34.30;100698.97;5059556;28;46228;-61
2022/04/20 00:52:14;;;;;;;;;5.25;4.50;;;;;20.96;34.84;100696.34;5059468;28;45439;-62
2022/04/20 00:54:40;;;;;;;;;5.00;5.00;;;;;20.97;34.23;100695.41;5059475;28;45409;-61
2022/04/20 00:57:06;;;;;;;;;6.50;5.75;;;;;20.97;34.51;100690.13;5058398;28;45681;-62
2022/04/20 00:59:34;;;;;;;;;5.00;5.00;;;;;20.97;34.67;100691.91;5059379;28;45363;-61
2022/04/20 01:02:00;;;;;;;;;7.50;7.00;;;;;20.96;34.34;100688.44;5059192;28;45178;-61
2022/04/20 01:04:25;;;;;;;;;4.25;4.25;;;;;20.96;34.63;100688.44;5059462;28;45244;-62
2022/04/20 01:06:51;;;;;;;;;4.50;4.50;;;;;20.96;34.32;100688.44;5059964;28;45842;-61
2022/04/20 01:09:17;;;;;;;;;5.00;5.00;;;;;20.96;34.75;100690.19;5059286;28;45559;-59
2022/04/20 01:11:42;;;;;;;;;7.75;6.50;;;;;20.96;34.88;100696.34;5059126;28;45303;-60
2022/04/20 01:14:09;;;;;;;;;6.00;6.00;;;;;20.95;34.66;100689.38;5059217;28;45428;-60
2022/04/20 01:16:34;;;;;;;;;5.75;4.25;;;;;20.95;34.48;100683.22;5059363;28;45276;-60
2022/04/20 01:19:01;;;;;;;;;5.00;5.00;;;;;20.96;34.26;100684.94;5057625;28;47628;-58
2022/04/20 01:21:27;;;;;;;;;6.00;6.00;;;;;20.95;34.58;100683.22;5058605;28;45895;-60
2022/04/20 01:23:52;;;;;;;;;7.75;5.50;;;;;20.94;34.66;100685.03;5059111;28;45418;-61
2022/04/20 01:26:18;;;;;;;;;6.50;6.25;;;;;20.94;34.58;100682.41;5059416;28;45777;-60
2022/04/20 01:28:45;;;;;;;;;4.25;4.25;;;;;20.93;34.81;100680.69;5058579;28;46215;-61
2022/04/20 01:31:17;;;;;;;;;7.00;6.00;;;;;20.94;34.37;100687.66;5058763;28;45735;-62
2022/04/20 01:33:44;;;;;;;;;6.25;6.25;;;;;20.93;34.75;100679.88;5058945;28;45265;-63
2022/04/20 01:36:10;;;;;;;;;6.00;6.00;;;;;20.93;34.48;100675.44;5059022;28;45438;-61
2022/04/20 01:38:37;;;;;;;;;6.00;4.50;;;;;20.92;34.54;100672.91;5057210;28;48655;-63
2022/04/20 01:41:02;;;;;;;;;4.50;4.50;;;;;20.92;34.45;100684.28;5058416;28;45305;-61
2022/04/20 01:43:28;;;;;;;;;5.50;5.50;;;;;20.92;34.49;100679.00;5058601;28;45509;-62
2022/04/20 01:45:53;;;;;;;;;5.00;4.75;;;;;20.92;34.86;100676.38;5058861;28;45528;-61
2022/04/20 01:48:18;;;;;;;;;6.50;5.50;;;;;20.92;34.52;100678.16;5058588;28;48433;-61
2022/04/20 01:53:28;;;;;;;;;5.75;4.50;;;;;20.92;34.85;100678.16;5058192;28;45561;-62
2022/04/20 01:55:53;;;;;;;;;5.75;5.75;;;;;20.91;34.47;100676.47;5057854;28;45594;-61
2022/04/20 01:58:19;;;;;;;;;7.00;5.75;;;;;20.90;34.57;100680.88;5058640;28;46553;-62
2022/04/20 02:00:44;;;;;;;;;7.00;5.75;;;;;20.92;34.56;100686.06;5058251;28;45337;-63
2022/04/20 02:03:10;;;;;;;;;9.00;5.00;;;;;20.91;34.95;100684.38;5058385;28;45517;-62
2022/04/20 02:05:35;;;;;;;;;6.25;6.25;;;;;20.90;34.83;100678.25;5058555;28;45429;-64
2022/04/20 02:08:01;;;;;;;;;6.00;6.00;;;;;20.89;34.73;100675.72;5057990;28;45489;-62
2022/04/20 02:10:26;;;;;;;;;8.00;7.00;;;;;20.86;34.48;100679.38;5058084;28;45398;-62
2022/04/20 02:12:51;;;;;;;;;6.00;4.67;;;;;20.90;34.74;100678.25;5056891;28;51386;-64
2022/04/20 02:15:17;;;;;;;;;10.25;6.00;;;;;20.91;34.95;100668.56;5058300;28;45572;-66
2022/04/20 02:17:42;;;;;;;;;6.25;6.25;;;;;20.91;34.83;100671.19;5057921;28;45902;-64
2022/04/20 02:20:09;;;;;;;;;5.50;5.00;;;;;20.90;34.92;100675.59;5057869;28;45280;-65
2022/04/20 02:22:34;;;;;;;;;7.00;5.50;;;;;20.89;34.83;100666.00;5058343;28;45349;-60
2022/04/20 02:25:00;;;;;;;;;4.00;4.00;;;;;20.89;34.69;100655.47;5058372;28;45232;-64
2022/04/20 02:27:28;;;;;;;;;7.00;7.00;;;;;20.89;34.88;100659.91;5058382;28;47068;-60
2022/04/20 02:29:53;;;;;;;;;7.00;7.00;;;;;20.88;34.51;100648.53;5058271;28;45906;-64
2022/04/20 02:32:19;;;;;;;;;10.00;8.75;;;;;20.88;34.47;100651.16;5057971;28;45410;-60
2022/04/20 02:34:44;;;;;;;;;6.00;6.00;;;;;20.88;34.98;100645.03;5058349;28;45512;-63
2022/04/20 02:37:09;;;;;;;;;5.00;5.00;;;;;20.87;34.83;100646.84;5057600;28;46163;-61
2022/04/20 02:39:36;;;;;;;;;8.00;7.00;;;;;20.87;34.87;100643.34;5056421;28;45338;-60
2022/04/20 02:42:03;;;;;;;;;7.75;6.25;;;;;20.85;35.00;100639.00;5057787;28;45371;-63
2022/04/20 02:44:29;;;;;;;;;5.75;5.25;;;;;20.87;34.42;100640.69;5057856;28;45669;-60
2022/04/20 02:46:54;;;;;;;;;8.75;6.00;;;;;20.85;35.08;100638.16;5057763;28;45270;-62
2022/04/20 02:49:21;;;;;;;;;8.75;6.50;;;;;20.86;35.10;100631.97;5057324;28;45268;-60
2022/04/20 02:51:46;;;;;;;;;6.50;6.00;;;;;20.85;34.59;100633.72;5057659;28;45403;-63
2022/04/20 02:54:12;;;;;;;;;6.00;5.00;;;;;20.85;34.74;100631.09;5057632;28;45470;-59
2022/04/20 02:56:37;;;;;;;;;7.25;7.25;;;;;20.85;34.58;100632.91;5057353;28;46104;-60
2022/04/20 02:59:02;;;;;;;;;6.25;6.25;;;;;20.84;34.59;100634.66;5057182;28;45319;-60
2022/04/20 03:01:30;;;;;;;;;6.00;6.00;;;;;20.85;34.85;100638.16;5057399;28;45436;-60
2022/04/20 03:03:56;;;;;;;;;7.50;7.50;;;;;20.84;35.25;100631.19;5057428;28;45401;-62
2022/04/20 03:06:21;;;;;;;;;6.00;6.00;;;;;20.85;35.11;100625.00;5057019;28;46347;-63
2022/04/20 03:08:47;;;;;;;;;7.25;7.00;;;;;20.85;34.96;100625.00;5057218;28;45493;-60
2022/04/20 03:11:13;;;;;;;;;6.25;6.25;;;;;20.84;34.83;100615.41;5057348;28;45339;-67
2022/04/20 03:13:38;;;;;;;;;6.75;5.50;;;;;20.84;35.05;100616.22;5056036;28;45380;-63
2022/04/20 03:16:04;;;;;;;;;7.00;7.00;;;;;20.83;35.10;100611.06;5057045;28;45388;-66
2022/04/20 03:18:32;;;;;;;;;6.75;6.00;;;;;20.83;34.71;100611.06;5057045;28;45181;-63
2022/04/20 03:20:59;;;;;;;;;9.75;7.00;;;;;20.82;34.96;100614.63;5057113;28;45544;-61
2022/04/20 03:23:24;;;;;;;;;7.00;6.00;;;;;20.83;34.76;100618.97;5057611;28;45506;-60
2022/04/20 03:25:49;;;;;;;;;6.00;6.00;;;;;20.83;34.75;100621.59;5056939;28;46014;-60
2022/04/20 03:28:15;;;;;;;;;5.00;5.00;;;;;20.82;35.03;100625.16;5057087;28;45248;-60
2022/04/20 03:30:41;;;;;;;;;6.00;6.00;;;;;20.83;35.23;100621.59;5057078;28;45367;-60
2022/04/20 03:33:08;;;;;;;;;8.00;7.75;;;;;20.82;34.73;100633.06;5057113;28;45436;-60
2022/04/20 03:35:35;;;;;;;;;7.25;7.25;;;;;20.82;34.84;100633.94;5056761;28;46714;-61
2022/04/20 03:38:00;;;;;;;;;6.75;6.00;;;;;20.82;35.19;100635.72;5056909;28;45773;-59
2022/04/20 03:40:26;;;;;;;;;5.00;5.00;;;;;20.81;34.64;100641.91;5056958;28;45572;-60
2022/04/20 03:42:51;;;;;;;;;8.25;7.00;;;;;20.81;34.66;100645.41;5057046;28;45597;-60
2022/04/20 03:45:16;;;;;;;;;8.00;7.00;;;;;20.82;34.66;100643.59;5056430;28;50031;-61
2022/04/20 03:47:43;;;;;;;;;6.50;6.50;;;;;20.81;34.58;100644.53;5056547;28;45388;-61
2022/04/20 03:50:09;;;;;;;;;8.25;8.25;;;;;20.81;34.83;100645.41;5056752;28;45405;-62
2022/04/20 03:52:36;;;;;;;;;9.00;8.50;;;;;20.80;34.94;100646.34;5056951;28;45393;-60
2022/04/20 03:55:01;;;;;;;;;11.00;8.25;;;;;20.81;34.88;100649.81;5056431;28;45468;-62
2022/04/20 03:57:27;;;;;;;;;6.75;6.75;;;;;20.80;34.86;100651.63;5056797;28;45322;-62
2022/04/20 03:59:52;;;;;;;;;4.25;4.25;;;;;20.80;34.77;100653.38;5056571;28;45434;-63
2022/04/20 04:02:17;;;;;;;;;7.00;6.50;;;;;20.81;34.87;100655.09;5056555;28;45418;-61
2022/04/20 04:04:43;;;;;;;;;10.00;9.00;;;;;20.80;34.75;100653.38;5056176;28;46332;-60
2022/04/20 04:07:08;;;;;;;;;8.75;8.00;;;;;20.81;34.68;100649.81;5056244;28;45386;-64
2022/04/20 04:09:33;;;;;;;;;13.50;12.00;;;;;20.79;34.88;100646.41;5056369;28;45203;-61
2022/04/20 04:11:59;;;;;;;;;10.50;9.00;;;;;20.78;34.68;100645.59;5056708;28;45232;-60
2022/04/20 04:14:25;;;;;;;;;13.25;13.00;;;;;20.77;35.21;100640.41;5054637;28;47661;-63
2022/04/20 04:16:50;;;;;;;;;12.00;10.75;;;;;20.77;34.76;100643.88;5055399;28;45642;-64
2022/04/20 04:19:16;;;;;;;;;14.00;12.50;;;;;20.77;35.17;100640.41;5056148;28;45244;-59
2022/04/20 04:21:41;;;;;;;;;12.75;12.75;;;;;20.75;34.83;100634.38;5055893;28;45330;-61
2022/04/20 04:24:08;;;;;;;;;13.00;13.00;;;;;20.74;34.62;100643.19;5055801;28;46058;-59
2022/04/20 04:26:36;;;;;;;;;13.25;13.00;;;;;20.74;34.58;100643.19;5055958;28;45873;-62
2022/04/20 04:29:02;;;;;;;;;11.75;11.00;;;;;20.72;34.81;100645.06;5055938;28;45414;-64
2022/04/20 04:31:28;;;;;;;;;15.50;15.00;;;;;20.72;35.14;100650.34;5056475;28;45535;-62
2022/04/20 04:33:53;;;;;;;;;13.00;12.50;;;;;20.70;35.14;100643.38;5055846;28;46006;-63
2022/04/20 04:36:19;;;;;;;;;12.75;10.25;;;;;20.70;34.74;100643.38;5055920;28;45283;-64
2022/04/20 04:38:44;;;;;;;;;11.25;10.00;;;;;20.69;34.98;100646.94;5055940;28;45308;-58
2022/04/20 04:41:10;;;;;;;;;13.00;10.00;;;;;20.70;34.86;100647.81;5054737;28;45648;-60
2022/04/20 04:43:36;;;;;;;;;11.50;11.25;;;;;20.69;35.18;100643.47;5054860;28;45563;-61
2022/04/20 04:48:48;;;;;;;;;11.25;10.25;;;;;20.69;35.31;100649.56;5055713;28;45397;-60
2022/04/20 04:51:15;;;;;;;;;10.50;10.50;;;;;20.69;34.84;100659.28;5055994;28;45387;-59
2022/04/20 04:53:40;;;;;;;;;12.25;9.75;;;;;20.68;35.31;100655.78;5054300;28;47497;-59
2022/04/20 04:56:06;;;;;;;;;16.00;13.25;;;;;20.67;34.78;100659.34;5055637;28;45434;-62
2022/04/20 04:58:31;;;;;;;;;13.50;10.00;;;;;20.67;35.09;100659.34;5056162;28;45402;-62
2022/04/20 05:00:57;;;;;;;;;12.25;11.25;;;;;20.67;35.11;100659.34;5055802;28;45313;-64
2022/04/20 05:03:23;;;;;;;;;12.50;10.50;;;;;20.66;34.87;100660.31;5055686;28;46297;-60
2022/04/20 05:05:48;;;;;;;;;13.50;12.00;;;;;20.67;34.83;100663.78;5055709;28;45268;-64
2022/04/20 05:08:14;;;;;;;;;17.00;13.50;;;;;20.66;34.72;100668.22;5055696;28;45347;-64
2022/04/20 05:10:39;;;;;;;;;11.75;10.25;;;;;20.64;34.68;100649.00;5055796;28;45537;-61
2022/04/20 05:13:05;;;;;;;;;12.50;11.75;;;;;20.66;35.30;100655.03;5055455;28;45291;-63
2022/04/20 05:15:31;;;;;;;;;12.50;12.50;;;;;20.65;35.13;100653.34;5055779;28;45292;-60
2022/04/20 05:17:56;;;;;;;;;13.50;13.50;;;;;20.64;35.06;100649.00;5055660;28;45460;-61
2022/04/20 05:20:22;;;;;;;;;12.00;12.00;;;;;20.64;34.99;100653.41;5055486;28;45546;-61
2022/04/20 05:22:48;;;;;;;;;13.75;13.00;;;;;20.65;35.14;100653.34;5054126;28;48204;-64
2022/04/20 05:25:15;;;;;;;;;13.00;12.00;;;;;20.64;34.98;100654.28;5055509;28;45387;-60
2022/04/20 05:27:40;;;;;;;;;15.25;11.00;;;;;20.63;35.26;100652.56;5055965;28;45387;-62
2022/04/20 05:30:08;;;;;;;;;14.25;12.75;;;;;20.64;35.09;100653.41;5059190;28;45453;-60
2022/04/20 05:32:33;;;;;;;;;12.00;10.50;;;;;20.64;34.80;100659.53;5058723;28;46218;-62
2022/04/20 05:34:59;;;;;;;;;11.50;11.50;;;;;20.63;35.24;100660.47;5058706;28;45367;-61
2022/04/20 05:42:53;;;;;;;;;13.25;11.00;;;;;20.62;34.81;100676.34;5058273;28;45261;-59
2022/04/20 05:45:19;;;;;;;;;14.75;11.00;;;;;20.62;35.29;100677.22;5058442;28;45318;-58
2022/04/20 05:47:45;;;;;;;;;11.50;11.50;;;;;20.62;34.78;100677.22;5057410;28;45303;-61
2022/04/20 05:50:11;;;;;;;;;11.25;11.00;;;;;20.63;35.09;100678.91;5058676;28;45299;-60
2022/04/20 05:52:36;;;;;;;;;10.00;10.00;;;;;20.64;35.07;100685.00;5058427;28;45326;-59
2022/04/20 05:55:03;;;;;;;;;15.50;12.50;;;;;20.63;34.94;100659.63;5057254;28;45191;-60
2022/04/20 05:57:28;;;;;;;;;12.75;11.50;;;;;20.63;35.05;100663.13;5058479;28;45425;-61
2022/04/20 05:59:53;;;;;;;;;13.75;12.25;;;;;20.62;34.99;100656.16;5058275;28;45332;-60
2022/04/20 06:02:19;;;;;;;;;11.00;11.00;;;;;20.62;34.69;100656.16;5057979;28;45369;-66
2022/04/20 06:04:44;;;;;;;;;13.75;13.50;;;;;20.63;34.69;100659.63;5056758;28;45301;-69
2022/04/20 06:07:09;;;;;;;;;17.00;11.25;;;;;20.63;34.87;100657.84;5058229;28;45442;-68
2022/04/20 06:09:35;;;;;;;;;13.75;11.25;;;;;20.64;34.95;100659.53;5058503;28;45416;-68
2022/04/20 06:12:01;;;;;;;;;14.50;13.25;;;;;20.64;34.68;100656.03;5058049;28;46193;-68
2022/04/20 06:14:26;;;;;;;;;15.00;13.50;;;;;20.63;35.37;100656.97;5056740;28;45948;-68
2022/04/20 06:16:52;;;;;;;;;15.00;14.00;;;;;20.63;35.14;100657.84;5058101;28;45354;-68
2022/04/20 06:19:17;;;;;;;;;14.33;14.33;;;;;20.63;35.02;100657.84;5057941;28;45616;-66
2022/04/20 06:21:43;;;;;;;;;14.50;13.50;;;;;20.62;35.00;100661.41;5057561;28;46095;-68
2022/04/20 06:24:08;;;;;;;;;14.50;13.75;;;;;20.63;34.81;100657.84;5057875;28;45350;-67
2022/04/20 06:26:33;;;;;;;;;14.75;14.75;;;;;20.61;35.06;100654.44;5056847;28;45660;-67
2022/04/20 06:28:59;;;;;;;;;15.75;13.75;;;;;20.62;34.93;100671.06;5058059;28;45650;-68
2022/04/20 06:31:24;;;;;;;;;15.50;13.50;;;;;20.61;34.95;100674.69;5057657;28;46296;-67
2022/04/20 06:33:49;;;;;;;;;16.00;14.25;;;;;20.59;34.67;100656.31;5056476;28;45804;-68
2022/04/20 06:36:15;;;;;;;;;14.25;11.25;;;;;20.61;35.30;100664.97;5057843;28;45272;-68
2022/04/20 06:38:40;;;;;;;;;15.25;14.75;;;;;20.61;35.30;100659.72;5057886;28;45447;-68
2022/04/20 06:41:05;;;;;;;;;16.25;15.25;;;;;20.61;35.22;100654.44;5057717;28;45500;-66
2022/04/20 06:43:32;;;;;;;;;14.25;14.25;;;;;20.63;35.08;100656.97;5057451;28;45281;-67
2022/04/20 06:45:57;;;;;;;;;15.00;14.50;;;;;20.64;35.17;100662.19;5057672;28;45271;-67
2022/04/20 06:48:22;;;;;;;;;17.50;16.50;;;;;20.64;34.64;100670.06;5057888;28;45525;-67
2022/04/20 06:50:48;;;;;;;;;21.25;19.25;;;;;20.65;35.24;100663.88;5057304;28;47053;-68
2022/04/20 06:58:44;;;;;;;;;19.75;16.50;;;;;20.66;34.97;100656.81;5057607;28;45275;-67
2022/04/20 07:01:10;;;;;;;;;47.75;40.00;;;;;20.65;34.13;100663.00;5055728;28;48252;-69
2022/04/20 07:03:38;;;;;;;;;52.00;40.50;;;;;20.55;34.59;100655.66;5057311;28;45363;-70
2022/04/20 07:06:04;;;;;;;;;52.00;39.75;;;;;20.45;34.51;100664.19;5056242;28;45295;-69
2022/04/20 07:08:31;;;;;;;;;55.00;42.25;;;;;20.36;33.96;100668.19;5057498;28;45564;-72
2022/04/20 07:10:57;;;;;;;;;52.75;41.50;;;;;20.24;34.32;100673.22;5056778;27;46169;-73
2022/04/20 07:13:22;;;;;;;;;51.25;40.00;;;;;20.18;34.64;100670.09;5057037;28;45270;-70
2022/04/20 07:15:48;;;;;;;;;52.25;42.25;;;;;20.09;34.46;100674.06;5056055;28;45344;-66
2022/04/20 07:18:13;;;;;;;;;48.75;38.75;;;;;20.02;34.50;100678.00;5057173;28;45362;-68
2022/04/20 07:20:39;;;;;;;;;50.75;40.00;;;;;19.95;34.35;100674.00;5057020;28;46100;-68
2022/04/20 07:23:05;;;;;;;;;55.00;41.75;;;;;19.86;34.30;100678.00;5057082;28;45452;-68
2022/04/20 07:25:31;;;;;;;;;51.50;41.00;;;;;19.81;34.51;100674.72;5057077;28;45327;-69
2022/04/20 07:27:56;;;;;;;;;49.75;39.50;;;;;19.74;34.27;100675.06;5056975;28;45337;-69
2022/04/20 07:30:22;;;;;;;;;38.25;32.75;;;;;19.71;34.35;100677.03;5056596;28;45954;-69
2022/04/20 07:32:48;;;;;;;;;46.50;37.75;;;;;19.67;34.27;100675.47;5055249;28;45589;-70
2022/04/20 07:35:14;;;;;;;;;49.00;38.25;;;;;19.64;34.81;100679.13;5056679;28;45239;-70
2022/04/20 07:37:40;;;;;;;;;47.75;38.50;;;;;19.62;34.72;100683.63;5055849;28;45736;-69
2022/04/20 07:40:06;;;;;;;;;51.25;39.50;;;;;19.60;34.51;100686.34;5056621;28;46897;-70
2022/04/20 07:42:32;;;;;;;;;48.75;37.00;;;;;19.56;34.78;100684.78;5056418;28;45358;-70
2022/04/20 07:44:58;;;;;;;;;50.25;38.00;;;;;19.52;34.60;100680.63;5056557;28;45393;-71
2022/04/20 07:47:25;;;;;;;;;43.75;37.00;;;;;19.52;34.71;100685.03;5056584;28;45601;-68
2022/04/20 07:52:45;;;;;;;;;45.00;37.75;;;;;19.47;34.37;100680.88;5056447;28;45827;-71
2022/04/20 07:55:15;;;;;;;;;43.50;36.50;;;;;19.45;34.96;100676.63;5056825;28;45445;-71
2022/04/20 07:57:43;;;;;;;;;48.75;37.50;;;;;19.43;34.50;100684.59;5056933;28;45456;-69
2022/04/20 08:00:09;;;;;;;;;43.50;35.00;;;;;19.44;34.67;100691.56;5056382;28;46555;-69
2022/04/20 08:02:35;;;;;;;;;42.50;36.50;;;;;19.44;34.50;100683.69;5056081;28;45914;-69
2022/04/20 08:05:00;;;;;;;;;44.50;34.50;;;;;19.43;34.75;100681.97;5056182;28;46045;-69
2022/04/20 08:07:26;;;;;;;;;43.50;35.25;;;;;19.42;34.34;100669.78;5056363;28;45373;-68
2022/04/20 08:09:52;;;;;;;;;44.00;36.25;;;;;19.41;34.16;100678.59;5056044;28;45804;-68
2022/04/20 08:12:17;;;;;;;;;44.00;35.75;;;;;19.41;34.21;100675.94;5056100;28;45316;-68
2022/04/20 08:14:43;;;;;;;;;43.00;35.00;;;;;19.40;34.33;100671.63;5056161;28;45554;-67
2022/04/20 08:17:08;;;;;;;;;44.75;33.75;;;;;19.40;34.23;100670.78;5056717;28;45533;-67
2022/04/20 08:19:33;;;;;;;;;38.25;32.50;;;;;19.40;34.60;100670.78;5055732;28;46331;-67
2022/04/20 08:21:59;;;;;;;;;32.25;28.50;;;;;19.40;34.27;100676.88;5055804;28;45182;-66
2022/04/20 08:24:25;;;;;;;;;39.50;31.25;;;;;19.40;34.01;100676.88;5056028;28;45352;-68
2022/04/20 08:26:50;;;;;;;;;39.50;30.75;;;;;19.40;34.19;100671.63;5056195;28;45517;-66
2022/04/20 08:29:16;;;;;;;;;35.25;29.00;;;;;19.40;33.87;100668.16;5055707;28;47388;-67
2022/04/20 08:31:41;;;;;;;;;32.25;28.00;;;;;19.37;33.73;100674.41;5056187;28;45301;-66
2022/04/20 08:34:07;;;;;;;;;31.75;26.50;;;;;19.37;34.17;100684.91;5056086;28;45227;-66
2022/04/20 08:36:33;;;;;;;;;29.25;26.75;;;;;19.37;33.88;100671.78;5056323;28;45872;-66
2022/04/20 08:38:59;;;;;;;;;33.75;29.50;;;;;19.38;33.75;100677.91;5055641;28;46213;-63
2022/04/20 08:41:25;;;;;;;;;25.00;24.00;;;;;19.39;34.15;100677.81;5055667;28;45383;-64
2022/04/20 08:43:52;;;;;;;;;30.25;27.00;;;;;19.41;33.48;100675.94;5055832;28;45424;-66
2022/04/20 08:46:17;;;;;;;;;32.75;27.25;;;;;19.44;33.99;100685.44;5056098;28;45491;-67
2022/04/20 08:48:43;;;;;;;;;28.75;27.00;;;;;19.44;33.81;100691.56;5055798;28;45464;-65
2022/04/20 08:51:08;;;;;;;;;32.00;27.00;;;;;19.43;33.90;100687.25;5056045;28;45267;-67
2022/04/20 08:53:35;;;;;;;;;29.75;29.25;;;;;19.41;33.91;100681.22;5054476;28;45327;-66
2022/04/20 08:58:48;;;;;;;;;30.00;27.25;;;;;19.45;33.37;100685.38;5055647;28;45672;-69
2022/04/20 09:01:16;;;;;;;;;30.50;27.00;;;;;19.47;33.81;100688.75;5055483;28;45918;-66
2022/04/20 09:03:44;;;;;;;;;26.50;24.75;;;;;19.50;33.49;100687.75;5058114;28;45447;-67
2022/04/20 09:06:09;;;;;;;;;20.25;19.50;;;;;19.52;33.23;100687.66;5059702;28;45621;-66
2022/04/20 09:08:36;;;;;;;;;26.50;23.25;;;;;19.53;33.54;100681.50;5058962;28;45382;-66
2022/04/20 09:11:01;;;;;;;;;30.00;23.00;;;;;19.56;33.34;100679.53;5059127;28;45281;-66
2022/04/20 09:13:41;;;;;;;;;25.75;23.75;;;;;19.58;33.40;100682.06;5059269;28;45281;-66
2022/04/20 09:16:08;;;;;;;;;29.00;25.00;;;;;19.60;33.60;100678.44;5059165;28;45452;-67
2022/04/20 09:18:34;;;;;;;;;27.75;25.75;;;;;19.60;33.34;100677.59;5058771;28;46141;-66
2022/04/20 09:21:11;;;;;;;;;26.00;21.50;;;;;19.66;33.58;100673.78;5058735;28;45390;-67
2022/04/20 09:23:37;;;;;;;;;23.25;21.50;;;;;19.68;33.58;100674.56;5058993;28;45302;-67
2022/04/20 09:26:17;;;;;;;;;23.00;22.50;;;;;19.68;33.41;100680.63;5058945;28;45248;-62
2022/04/20 09:29:06;;;;;;;;;21.50;21.25;;;;;19.69;32.94;100677.09;5058894;28;46357;-66
2022/04/20 09:31:50;;;;;;;;;24.50;19.75;;;;;19.69;33.13;100677.09;5058671;28;45957;-66
2022/04/20 09:34:54;;;;;;;;;23.50;19.00;;;;;19.70;32.93;100673.53;5058905;28;45342;-65
2022/04/20 09:37:22;;;;;;;;;26.00;23.25;;;;;19.72;32.92;100674.28;5058927;28;45431;-65
2022/04/20 09:39:51;;;;;;;;;24.75;19.50;;;;;19.74;32.93;100671.56;5057180;28;46071;-65
2022/04/20 09:42:20;;;;;;;;;21.00;19.00;;;;;19.75;33.39;100661.00;5058471;28;45354;-64
2022/04/20 09:44:54;;;;;;;;;21.00;18.50;;;;;19.77;32.92;100669.66;5058875;28;45314;-65
2022/04/20 09:50:10;;;;;;;;;19.50;17.50;;;;;19.81;32.82;100665.06;5057334;28;45271;-64
2022/04/20 09:52:44;;;;;;;;;23.50;21.25;;;;;19.80;32.92;100651.97;5058427;28;45370;-66
2022/04/20 09:55:26;;;;;;;;;23.50;20.00;;;;;19.83;33.47;100665.84;5058501;28;45232;-67
2022/04/20 09:57:51;;;;;;;;;19.00;18.00;;;;;19.84;33.52;100657.00;5057318;28;45462;-63
2022/04/20 10:00:17;;;;;;;;;19.50;17.50;;;;;19.83;33.30;100651.81;5058066;28;45544;-63
2022/04/20 10:02:48;;;;;;;;;20.00;17.75;;;;;19.87;33.46;100653.38;5058360;28;45247;-65
2022/04/20 10:05:18;;;;;;;;;21.25;17.75;;;;;19.87;32.93;100650.75;5058473;28;45395;-64
2022/04/20 10:07:44;;;;;;;;;17.25;15.75;;;;;19.91;33.43;100654.91;5057262;28;45436;-66
2022/04/20 10:10:10;;;;;;;;;20.50;17.25;;;;;19.92;33.00;100649.56;5057910;28;45370;-67
2022/04/20 10:12:38;;;;;;;;;19.25;17.50;;;;;19.93;33.17;100646.00;5058273;28;45440;-66
2022/04/20 10:17:51;;;;;;;;;19.25;17.25;;;;;19.97;32.75;100654.56;5058270;28;45233;-66
2022/04/20 10:20:19;;;;;;;;;19.50;17.00;;;;;19.99;33.33;100657.97;5057989;28;46230;-67
2022/04/20 10:22:46;;;;;;;;;22.50;16.00;;;;;19.99;32.93;100647.44;5058110;28;45798;-67
2022/04/20 10:25:13;;;;;;;;;17.50;14.00;;;;;20.00;32.99;100643.88;5057969;28;45311;-66
2022/04/20 10:27:59;;;;;;;;;19.00;17.25;;;;;20.02;33.05;100639.38;5057994;28;45363;-67
2022/04/20 10:30:40;;;;;;;;;18.75;16.75;;;;;20.02;33.52;100636.72;5056108;28;48302;-66
2022/04/20 10:33:09;;;;;;;;;14.00;12.25;;;;;20.02;33.25;100631.47;5057737;28;45368;-66
2022/04/20 10:35:58;;;;;;;;;14.75;14.75;;;;;20.04;33.53;100629.59;5057902;28;45412;-66
2022/04/20 10:38:24;;;;;;;;;13.50;13.50;;;;;20.05;33.28;100627.84;5058024;28;45457;-66
2022/04/20 10:41:05;;;;;;;;;16.50;15.00;;;;;20.07;33.74;100628.56;5057515;28;45520;-65
2022/04/20 10:43:31;;;;;;;;;16.25;15.25;;;;;20.08;33.49;100623.25;5057432;28;45241;-66
2022/04/20 10:46:16;;;;;;;;;14.50;12.00;;;;;20.11;33.74;100626.63;5057806;28;45413;-67
2022/04/20 10:48:53;;;;;;;;;14.00;11.75;;;;;20.12;33.78;100612.56;5057960;28;45407;-66
2022/04/20 10:51:35;;;;;;;;;10.50;10.00;;;;;20.13;33.43;100617.72;5057448;28;46474;-66
2022/04/20 10:54:48;;;;;;;;;14.25;12.75;;;;;20.16;33.84;100616.69;5057045;28;45824;-66
2022/04/20 10:57:13;;;;;;;;;10.25;9.25;;;;;20.17;33.49;100607.84;4995539;28;45532;-66
2022/04/20 10:59:40;;;;;;;;;12.50;12.50;;;;;20.17;33.56;100603.47;5049849;28;45391;-64
2022/04/20 11:02:08;;;;;;;;;12.00;12.00;;;;;20.19;33.29;100609.47;5055906;28;45470;-64
2022/04/20 11:04:39;;;;;;;;;10.50;9.50;;;;;20.20;33.26;100605.06;5057272;28;45924;-66
2022/04/20 11:07:06;;;;;;;;;11.25;9.75;;;;;20.21;33.47;100589.16;5057376;28;45846;-65
2022/04/20 11:09:48;;;;;;;;;10.25;10.25;;;;;20.24;33.72;100580.25;5057369;28;45269;-66
2022/04/20 11:21:04;;;;;;;;;8.50;6.75;;;;;20.32;33.85;100585.94;5057060;28;45237;-65
2022/04/20 11:23:51;;;;;;;;;10.75;8.50;;;;;20.34;33.27;100589.28;5055501;28;46521;-67
2022/04/20 11:26:41;;;;;;;;;9.25;8.50;;;;;20.35;33.58;100582.25;5056512;28;45448;-65
2022/04/20 11:29:15;;;;;;;;;8.75;8.75;;;;;20.36;33.48;100597.13;5057047;28;45331;-69
2022/04/20 11:31:43;;;;;;;;;7.75;7.25;;;;;20.37;32.87;100583.84;5057368;28;45936;-67
2022/04/20 11:34:14;;;;;;;;;7.00;7.00;;;;;20.37;33.23;100583.84;5056585;28;46205;-64
2022/04/20 11:36:45;;;;;;;;;10.00;6.25;;;;;20.39;32.92;100576.72;5055486;28;45428;-67
2022/04/20 11:39:11;;;;;;;;;6.50;6.25;;;;;20.42;32.97;100572.22;5056818;28;45428;-66
2022/04/20 11:41:45;;;;;;;;;9.00;7.00;;;;;20.44;32.51;100578.25;5056946;28;45521;-68
2022/04/20 11:44:41;;;;;;;;;6.00;6.00;;;;;20.44;32.62;100584.34;5055124;28;48131;-68
2022/04/20 11:47:09;;;;;;;;;6.25;6.25;;;;;20.44;32.51;100578.25;5055287;28;45362;-68
2022/04/20 11:49:36;;;;;;;;;7.00;6.00;;;;;20.45;32.11;100574.69;5056620;28;45186;-67
2022/04/20 11:52:06;;;;;;;;;6.00;5.25;;;;;20.46;31.84;100576.34;5056687;28;45333;-67
2022/04/20 11:54:33;;;;;;;;;9.50;8.00;;;;;20.47;32.13;100568.38;5056445;28;46795;-67